createdAt,value
2019-03-01T00:00:09.194Z,34.48
2019-03-01T00:02:38.496Z,36.23
2019-03-01T00:05:55.741Z,31.65
2019-03-01T00:08:34.185Z,37.88
2019-03-01T00:11:34.701Z,34.03
2019-03-01T00:14:38.241Z,37.67
2019-03-01T00:17:48.813Z,34.23
2019-03-01T00:20:29.722Z,34.20
2019-03-01T00:23:47.971Z,33.92
2019-03-01T00:27:13.317Z,32.53
2019-03-01T00:30:15.662Z,35.07
2019-03-01T00:33:23.906Z,33.48
2019-03-01T00:36:46.740Z,32.10
2019-03-01T00:40:07.216Z,31.40
2019-03-01T00:43:27.947Z,30.05
2019-03-01T00:45:56.913Z,30.20
2019-03-01T00:48:25.962Z,29.50
2019-03-01T00:51:01.714Z,30.62
2019-03-01T00:53:30.844Z,31.25
2019-03-01T00:56:00.007Z,31.60
2019-03-01T00:58:35.162Z,30.40
2019-03-01T01:01:04.219Z,32.23
2019-03-01T01:03:33.199Z,31.62
2019-03-01T01:06:08.309Z,31.93
2019-03-01T01:08:37.535Z,28.95
2019-03-01T01:11:06.797Z,30.27
2019-03-01T01:13:42.575Z,28.40
2019-03-01T01:16:11.974Z,29.97
2019-03-01T01:18:40.892Z,31.90
2019-03-01T01:21:16.754Z,28.47
2019-03-01T01:23:45.466Z,31.85
2019-03-01T01:26:14.207Z,30.32
2019-03-01T01:28:50.071Z,28.50
2019-03-01T01:31:18.796Z,28.57
2019-03-01T01:34:00.973Z,27.07
2019-03-01T01:36:29.662Z,28.47
2019-03-01T01:39:12.773Z,28.42
2019-03-01T01:41:48.295Z,30.50
2019-03-01T01:44:23.786Z,26.27
2019-03-01T01:46:52.562Z,25.72
2019-03-01T01:49:21.310Z,25.90
2019-03-01T01:51:56.686Z,26.65
2019-03-01T01:58:12.880Z,26.68
2019-03-01T02:00:41.582Z,25.85
2019-03-01T02:03:10.368Z,25.93
2019-03-01T02:05:45.369Z,27.17
2019-03-01T02:08:14.103Z,25.80
2019-03-01T02:10:42.846Z,25.77
2019-03-01T02:13:20.811Z,26.60
2019-03-01T02:15:49.560Z,24.98
2019-03-01T02:18:18.353Z,23.25
2019-03-01T02:20:54.252Z,24.10
2019-03-01T02:23:22.991Z,23.42
2019-03-01T02:25:51.683Z,25.35
2019-03-01T02:28:27.127Z,24.37
2019-03-01T02:30:56.392Z,24.80
2019-03-01T02:33:25.106Z,24.85
2019-03-01T02:36:06.840Z,22.95
2019-03-01T02:38:42.023Z,24.13
2019-03-01T02:41:24.771Z,22.20
2019-03-01T02:43:53.644Z,21.65
2019-03-01T02:46:22.341Z,24.05
2019-03-01T02:48:57.579Z,24.07
2019-03-01T02:51:26.293Z,23.57
2019-03-01T02:53:55.023Z,22.85
2019-03-01T02:56:30.213Z,25.17
2019-03-01T02:58:58.964Z,25.35
2019-03-01T03:01:27.661Z,24.95
2019-03-01T03:04:02.680Z,24.40
2019-03-01T03:06:42.947Z,26.73
2019-03-01T03:09:19.229Z,26.62
2019-03-01T03:11:48.012Z,26.25
2019-03-01T03:14:16.738Z,28.27
2019-03-01T03:16:51.770Z,26.33
2019-03-01T03:19:20.500Z,25.15
2019-03-01T03:21:49.190Z,26.50
2019-03-01T03:24:24.840Z,26.68
2019-03-01T03:26:53.516Z,27.25
2019-03-01T03:29:22.224Z,25.00
2019-03-01T03:31:58.011Z,26.97
2019-03-01T03:34:26.739Z,29.63
2019-03-01T03:37:09.117Z,27.87
2019-03-01T03:39:44.392Z,25.85
2019-03-01T03:42:27.007Z,28.83
2019-03-01T03:44:55.728Z,30.12
2019-03-01T03:47:24.469Z,32.65
2019-03-01T03:49:59.688Z,31.30
2019-03-01T03:52:28.430Z,30.25
2019-03-01T03:54:57.203Z,32.42
2019-03-01T03:57:32.853Z,33.92
2019-03-01T04:00:01.564Z,35.03
2019-03-01T04:02:30.280Z,36.13
2019-03-01T04:05:05.765Z,34.35
2019-03-01T04:07:34.463Z,34.20
2019-03-01T04:10:03.417Z,32.85
2019-03-01T04:12:39.017Z,33.90
2019-03-01T04:15:08.932Z,33.92
2019-03-01T04:17:37.646Z,36.83
2019-03-01T04:20:14.902Z,33.17
2019-03-01T04:22:43.652Z,32.88
2019-03-01T04:25:12.609Z,34.33
2019-03-01T04:27:47.822Z,36.05
2019-03-01T04:30:16.977Z,35.75
2019-03-01T04:32:45.839Z,34.50
2019-03-01T04:35:21.796Z,34.67
2019-03-01T04:37:57.563Z,34.05
2019-03-01T04:40:39.174Z,36.23
2019-03-01T04:43:14.789Z,34.83
2019-03-01T04:45:50.368Z,36.58
2019-03-01T04:48:25.861Z,35.55
2019-03-01T04:51:00.813Z,35.00
2019-03-01T04:53:29.554Z,37.25
2019-03-01T04:55:58.303Z,39.03
2019-03-01T04:58:33.729Z,37.13
2019-03-01T05:01:02.640Z,37.28
2019-03-01T05:03:31.356Z,37.15
2019-03-01T05:06:06.470Z,39.00
2019-03-01T05:08:35.182Z,37.30
2019-03-01T05:11:04.164Z,37.15
2019-03-01T05:13:39.618Z,38.73
2019-03-01T05:16:08.336Z,36.42
2019-03-01T05:18:37.067Z,37.43
2019-03-01T05:21:12.027Z,39.10
2019-03-01T05:23:40.766Z,38.37
2019-03-01T05:26:09.484Z,35.95
2019-03-01T05:28:45.124Z,39.10
2019-03-01T05:31:13.882Z,34.58
2019-03-01T05:33:42.581Z,36.17
2019-03-01T05:36:17.603Z,37.98
2019-03-01T05:38:53.170Z,36.95
2019-03-01T05:41:34.792Z,33.93
2019-03-01T05:44:10.444Z,35.65
2019-03-01T05:46:46.196Z,38.83
2019-03-01T05:49:15.134Z,38.28
2019-03-01T05:51:43.872Z,37.75
2019-03-01T05:54:18.697Z,36.85
2019-03-01T05:56:48.560Z,36.10
2019-03-01T05:59:30.937Z,35.20
2019-03-01T06:02:47.149Z,36.10
2019-03-01T06:05:47.669Z,37.53
2019-03-01T06:08:45.788Z,37.10
2019-03-01T06:12:07.042Z,37.00
2019-03-01T06:15:18.147Z,37.90
2019-03-01T06:18:34.549Z,37.70
2019-03-01T06:21:47.986Z,35.73
2019-03-01T06:24:56.330Z,35.50
2019-03-01T06:28:27.561Z,33.73
2019-03-01T06:31:47.345Z,37.03
2019-03-01T06:34:41.504Z,38.20
2019-03-01T06:37:25.447Z,35.00
2019-03-01T06:40:59.713Z,40.10
2019-03-01T06:44:09.839Z,39.60
2019-03-01T06:47:03.717Z,35.53
2019-03-01T06:49:57.857Z,34.70
2019-03-01T06:52:26.624Z,36.33
2019-03-01T06:54:55.386Z,36.48
2019-03-01T06:57:30.247Z,39.83
2019-03-01T07:00:00.343Z,37.37
2019-03-01T07:02:54.358Z,32.93
2019-03-01T07:05:23.144Z,33.65
2019-03-01T07:07:51.891Z,33.98
2019-03-01T07:10:27.540Z,36.30
2019-03-01T07:12:59.285Z,36.13
2019-03-01T07:15:28.135Z,34.75
2019-03-01T07:18:03.061Z,35.90
2019-03-01T07:20:33.480Z,35.78
2019-03-01T07:23:02.199Z,33.13
2019-03-01T07:25:37.638Z,35.92
2019-03-01T07:28:06.360Z,36.20
2019-03-01T07:30:35.622Z,32.75
2019-03-01T07:33:11.269Z,33.97
2019-03-01T07:35:40.036Z,33.73
2019-03-01T07:38:08.770Z,32.78
2019-03-01T07:40:51.312Z,33.38
2019-03-01T07:43:26.495Z,36.75
2019-03-01T07:46:01.554Z,34.00
2019-03-01T07:48:30.331Z,35.23
2019-03-01T07:50:59.069Z,35.05
2019-03-01T07:53:36.038Z,35.75
2019-03-01T07:56:05.280Z,38.98
2019-03-01T07:58:34.375Z,36.00
2019-03-01T08:01:09.723Z,37.95
2019-03-01T08:03:38.714Z,37.78
2019-03-01T08:06:13.172Z,35.13
2019-03-01T08:08:44.533Z,41.40
2019-03-01T08:11:13.452Z,34.70
2019-03-01T08:13:42.242Z,38.35
2019-03-01T08:16:20.099Z,41.18
2019-03-01T08:18:47.670Z,41.60
2019-03-01T08:21:17.492Z,45.52
2019-03-01T08:23:52.554Z,46.95
2019-03-01T08:26:21.336Z,46.23
2019-03-01T08:28:50.091Z,49.60
2019-03-01T08:31:25.151Z,49.95
2019-03-01T08:33:53.948Z,45.98
2019-03-01T08:36:22.703Z,52.03
2019-03-01T08:39:00.967Z,50.73
2019-03-01T08:41:48.384Z,50.48
2019-03-01T08:44:24.257Z,48.98
2019-03-01T08:46:53.186Z,49.50
2019-03-01T08:49:22.192Z,51.75
2019-03-01T08:51:58.557Z,52.90
2019-03-01T08:54:28.405Z,49.88
2019-03-01T08:56:57.272Z,55.23
2019-03-01T08:59:32.429Z,50.83
2019-03-01T09:02:01.207Z,55.35
2019-03-01T09:04:29.975Z,53.48
2019-03-01T09:07:06.566Z,55.73
2019-03-01T09:09:35.389Z,56.00
2019-03-01T09:12:04.221Z,55.95
2019-03-01T09:14:39.475Z,54.00
2019-03-01T09:17:08.286Z,54.33
2019-03-01T09:19:37.087Z,55.03
2019-03-01T09:22:12.978Z,57.30
2019-03-01T09:24:41.702Z,56.02
2019-03-01T09:27:10.846Z,58.52
2019-03-01T09:29:46.430Z,55.98
2019-03-01T09:32:15.243Z,61.50
2019-03-01T09:34:45.367Z,57.50
2019-03-01T09:37:20.376Z,57.93
2019-03-01T09:39:50.394Z,57.17
2019-03-01T09:42:39.060Z,53.17
2019-03-01T09:45:10.431Z,53.80
2019-03-01T09:47:40.107Z,53.25
2019-03-01T09:50:16.487Z,53.00
2019-03-01T09:52:48.462Z,54.73
2019-03-01T09:55:18.246Z,53.63
2019-03-01T09:57:54.095Z,57.85
2019-03-01T10:00:23.620Z,58.55
2019-03-01T10:02:52.707Z,53.87
2019-03-01T10:05:28.234Z,59.85
2019-03-01T10:07:56.990Z,56.53
2019-03-01T10:10:27.412Z,59.05
2019-03-01T10:13:03.076Z,56.25
2019-03-01T10:15:31.887Z,58.65
2019-03-01T10:18:00.772Z,59.23
2019-03-01T10:20:35.867Z,55.17
2019-03-01T10:23:04.740Z,53.90
2019-03-01T10:25:33.713Z,52.85
2019-03-01T10:28:08.980Z,51.25
2019-03-01T10:30:37.924Z,50.90
2019-03-01T10:33:06.960Z,51.98
2019-03-01T10:35:42.777Z,53.87
2019-03-01T10:38:11.646Z,53.33
2019-03-01T10:40:40.837Z,51.23
2019-03-01T10:43:23.518Z,47.23
2019-03-01T10:45:59.091Z,48.40
2019-03-01T10:48:35.122Z,52.08
2019-03-01T10:51:03.904Z,49.70
2019-03-01T10:53:32.653Z,48.73
2019-03-01T10:56:07.750Z,43.38
2019-03-01T10:58:36.556Z,42.43
2019-03-01T11:01:05.972Z,42.78
2019-03-01T11:03:41.394Z,44.13
2019-03-01T11:06:10.306Z,43.75
2019-03-01T11:08:39.109Z,47.15
2019-03-01T11:11:14.840Z,47.90
2019-03-01T11:13:43.669Z,45.28
2019-03-01T11:16:16.773Z,47.17
2019-03-01T11:19:00.797Z,53.55
2019-03-01T11:21:35.838Z,45.70
2019-03-01T11:24:20.473Z,46.20
2019-03-01T11:26:50.718Z,49.60
2019-03-01T11:29:19.617Z,45.38
2019-03-01T11:32:00.123Z,55.03
2019-03-01T11:34:30.002Z,49.77
2019-03-01T11:37:10.423Z,49.90
2019-03-01T11:39:39.984Z,50.20
2019-03-01T11:42:08.865Z,47.08
2019-03-01T11:44:50.802Z,52.70
2019-03-01T11:47:26.212Z,47.78
2019-03-01T11:50:01.110Z,53.15
2019-03-01T11:52:29.833Z,45.52
2019-03-01T11:54:58.618Z,45.57
2019-03-01T11:57:33.597Z,46.28
2019-03-01T12:00:02.391Z,41.95
2019-03-01T12:02:31.222Z,41.08
2019-03-01T12:05:07.002Z,38.70
2019-03-01T12:07:35.816Z,38.73
2019-03-01T12:10:05.764Z,39.88
2019-03-01T12:12:41.469Z,40.52
2019-03-01T12:15:10.369Z,40.98
2019-03-01T12:17:39.256Z,39.80
2019-03-01T12:20:16.335Z,37.15
2019-03-01T12:22:45.116Z,34.20
2019-03-01T12:25:14.073Z,34.78
2019-03-01T12:27:49.559Z,38.02
2019-03-01T12:30:19.946Z,34.70
2019-03-01T12:32:48.684Z,35.00
2019-03-01T12:35:24.292Z,35.27
2019-03-01T12:37:53.112Z,32.78
2019-03-01T12:40:23.716Z,30.45
2019-03-01T12:42:58.808Z,29.15
2019-03-01T12:45:40.956Z,32.17
2019-03-01T12:48:16.674Z,32.10
2019-03-01T12:50:45.449Z,29.72
2019-03-01T12:53:14.163Z,30.43
2019-03-01T12:55:49.880Z,27.00
2019-03-01T12:58:19.740Z,25.77
2019-03-01T13:00:48.599Z,25.92
2019-03-01T13:03:24.376Z,24.85
2019-03-01T13:05:53.179Z,22.37
2019-03-01T13:08:21.966Z,20.60
2019-03-01T13:10:56.913Z,21.00
2019-03-01T13:13:25.703Z,20.62
2019-03-01T13:15:54.441Z,19.05
2019-03-01T13:18:30.230Z,17.60
2019-03-01T13:20:59.193Z,17.42
2019-03-01T13:23:27.936Z,16.67
2019-03-01T13:26:06.166Z,15.43
2019-03-01T13:28:34.337Z,15.13
2019-03-01T13:31:03.259Z,16.52
2019-03-01T13:33:39.096Z,13.00
2019-03-01T13:36:08.434Z,14.25
2019-03-01T13:38:37.821Z,14.23
2019-03-01T13:41:13.134Z,14.13
2019-03-01T13:44:04.149Z,13.58
2019-03-01T13:46:45.505Z,12.47
2019-03-01T13:49:14.220Z,12.10
2019-03-01T13:51:43.474Z,14.10
2019-03-01T13:54:20.747Z,14.00
2019-03-01T13:56:50.850Z,14.30
2019-03-01T13:59:19.825Z,14.15
2019-03-01T14:01:55.117Z,13.58
2019-03-01T14:04:27.108Z,12.35
2019-03-01T14:06:55.874Z,13.78
2019-03-01T14:09:30.762Z,13.60
2019-03-01T14:12:00.375Z,12.63
2019-03-01T14:14:29.566Z,11.78
2019-03-01T14:17:05.135Z,10.78
2019-03-01T14:19:34.001Z,11.93
2019-03-01T14:22:05.283Z,10.05
2019-03-01T14:24:40.477Z,9.60
2019-03-01T14:27:09.377Z,11.10
2019-03-01T14:29:38.114Z,10.43
2019-03-01T14:32:15.376Z,10.08
2019-03-01T14:34:48.629Z,9.08
2019-03-01T14:37:18.492Z,7.93
2019-03-01T14:39:53.113Z,7.47
2019-03-01T14:42:21.964Z,7.78
2019-03-01T14:45:06.633Z,8.50
2019-03-01T14:47:41.040Z,9.15
2019-03-01T14:50:18.248Z,6.45
2019-03-01T14:52:46.996Z,6.53
2019-03-01T14:55:28.777Z,6.62
2019-03-01T14:58:01.360Z,7.92
2019-03-01T15:00:49.654Z,8.10
2019-03-01T15:03:34.519Z,5.87
2019-03-01T15:06:10.597Z,6.92
2019-03-01T15:08:44.239Z,7.10
2019-03-01T15:11:22.876Z,6.65
2019-03-01T15:13:53.178Z,6.25
2019-03-01T15:16:22.048Z,6.83
2019-03-01T15:18:57.474Z,5.60
2019-03-01T15:21:26.273Z,7.03
2019-03-01T15:23:56.131Z,6.87
2019-03-01T15:26:32.484Z,8.28
2019-03-01T15:29:07.735Z,7.67
2019-03-01T15:31:42.890Z,7.40
2019-03-01T15:34:11.720Z,7.42
2019-03-01T15:36:40.614Z,6.57
2019-03-01T15:46:19.799Z,6.58
2019-03-01T15:48:55.768Z,6.05
2019-03-01T15:51:34.719Z,6.35
2019-03-01T15:54:02.160Z,6.15
2019-03-01T15:56:30.945Z,6.10
2019-03-01T15:59:09.686Z,6.30
2019-03-01T16:01:37.491Z,6.50
2019-03-01T16:04:06.306Z,4.97
2019-03-01T16:06:41.365Z,5.47
2019-03-01T16:09:16.178Z,6.10
2019-03-01T16:11:53.213Z,6.83
2019-03-01T16:14:24.214Z,6.10
2019-03-01T16:16:52.577Z,5.83
2019-03-01T16:19:28.141Z,6.05
2019-03-01T16:21:57.734Z,6.45
2019-03-01T16:24:26.480Z,5.92
2019-03-01T16:27:02.191Z,5.60
2019-03-01T16:29:30.973Z,6.47
2019-03-01T16:32:18.695Z,6.00
2019-03-01T16:34:47.801Z,6.37
2019-03-01T16:37:17.304Z,7.05
2019-03-01T16:39:56.073Z,6.25
2019-03-01T16:42:23.925Z,6.12
2019-03-01T16:45:12.951Z,6.03
2019-03-01T16:47:48.068Z,5.78
2019-03-01T16:50:29.904Z,6.45
2019-03-01T16:53:04.236Z,7.50
2019-03-01T16:55:29.247Z,7.17
2019-03-01T16:58:07.182Z,7.50
2019-03-01T17:00:35.888Z,6.80
2019-03-01T17:03:05.255Z,7.15
2019-03-01T17:05:40.869Z,7.10
2019-03-01T17:08:09.679Z,7.33
2019-03-01T17:10:38.631Z,7.43
2019-03-01T17:13:13.814Z,7.58
2019-03-01T17:15:45.508Z,8.20
2019-03-01T17:18:14.211Z,8.28
2019-03-01T17:21:08.570Z,6.60
2019-03-01T17:23:39.304Z,7.93
2019-03-01T17:26:07.549Z,7.92
2019-03-01T17:28:43.023Z,8.20
2019-03-01T17:31:11.875Z,7.72
2019-03-01T17:33:41.279Z,9.65
2019-03-01T17:36:16.806Z,7.67
2019-03-01T17:38:46.940Z,9.18
2019-03-01T17:41:16.001Z,8.03
2019-03-01T17:43:51.823Z,7.80
2019-03-01T17:46:47.772Z,9.90
2019-03-01T17:49:23.654Z,8.25
2019-03-01T17:51:59.134Z,9.35
2019-03-01T17:54:36.267Z,9.00
2019-03-01T17:57:05.106Z,11.03
2019-03-01T17:59:34.900Z,9.75
2019-03-01T18:02:12.135Z,12.37
2019-03-01T18:04:40.495Z,12.60
2019-03-01T18:07:09.306Z,12.67
2019-03-01T18:09:45.233Z,13.43
2019-03-01T18:12:14.049Z,10.67
2019-03-01T18:14:42.788Z,11.75
2019-03-01T18:17:18.353Z,9.00
2019-03-01T18:19:47.097Z,9.80
2019-03-01T18:22:15.934Z,9.80
2019-03-01T18:24:51.126Z,9.73
2019-03-01T18:27:20.397Z,9.53
2019-03-01T18:29:49.210Z,8.20
2019-03-01T18:32:26.315Z,8.77
2019-03-01T18:34:54.977Z,8.68
2019-03-01T18:37:23.773Z,8.95
2019-03-01T18:39:59.515Z,9.48
2019-03-01T18:42:28.373Z,9.65
2019-03-01T18:44:57.149Z,7.70
2019-03-01T18:47:32.062Z,8.43
2019-03-01T18:50:07.540Z,7.33
2019-03-01T18:52:49.651Z,7.20
2019-03-01T18:55:20.042Z,7.62
2019-03-01T18:57:58.040Z,7.77
2019-03-01T19:00:32.573Z,6.17
2019-03-01T19:03:27.933Z,6.92
2019-03-01T19:05:56.768Z,6.28
2019-03-01T19:08:25.592Z,6.60
2019-03-01T19:11:02.908Z,6.47
2019-03-01T19:13:31.952Z,6.08
2019-03-01T19:16:00.722Z,6.50
2019-03-01T19:18:35.899Z,6.40
2019-03-01T19:21:04.643Z,6.47
2019-03-01T19:23:33.476Z,6.78
2019-03-01T19:26:08.742Z,6.55
2019-03-01T19:28:37.709Z,6.50
2019-03-01T19:31:06.615Z,6.12
2019-03-01T19:33:42.386Z,6.30
2019-03-01T19:36:11.187Z,6.28
2019-03-01T19:38:39.982Z,6.30
2019-03-01T19:41:14.960Z,6.65
2019-03-01T19:43:45.713Z,8.00
2019-03-01T19:46:15.685Z,6.87
2019-03-01T19:48:51.357Z,6.15
2019-03-01T19:51:26.481Z,5.90
2019-03-01T19:54:08.491Z,6.30
2019-03-01T19:56:37.254Z,6.17
2019-03-01T19:59:06.016Z,8.00
2019-03-01T20:01:41.049Z,6.30
2019-03-01T20:04:09.897Z,6.08
2019-03-01T20:06:39.724Z,5.70
2019-03-01T20:09:15.892Z,5.95
2019-03-01T20:15:32.306Z,6.17
2019-03-01T20:18:01.132Z,6.70
2019-03-01T20:20:33.359Z,7.37
2019-03-01T20:23:07.259Z,7.22
2019-03-01T20:25:36.098Z,5.10
2019-03-01T20:28:30.541Z,6.40
2019-03-01T20:31:05.852Z,6.00
2019-03-01T20:36:56.313Z,5.55
2019-03-01T20:39:25.250Z,5.90
2019-03-01T20:41:54.538Z,5.78
2019-03-01T20:44:29.831Z,5.60
2019-03-01T20:46:58.641Z,5.35
2019-03-01T20:49:27.892Z,6.97
2019-03-01T20:52:25.007Z,6.20
2019-03-01T20:55:01.764Z,5.28
2019-03-01T20:57:39.192Z,6.10
2019-03-01T21:00:10.759Z,6.10
2019-03-01T21:02:39.825Z,7.30
2019-03-01T21:05:16.047Z,6.08
2019-03-01T21:07:48.180Z,6.72
2019-03-01T21:10:17.406Z,6.17
2019-03-01T21:12:52.773Z,7.28
2019-03-01T21:15:21.831Z,6.67
2019-03-01T21:17:53.065Z,6.70
2019-03-01T21:20:28.985Z,6.53
2019-03-01T21:22:57.884Z,6.78
2019-03-01T21:25:27.098Z,7.33
2019-03-01T21:28:02.370Z,7.05
2019-03-01T21:30:55.633Z,8.68
2019-03-01T21:33:36.166Z,6.35
2019-03-01T21:36:04.916Z,6.62
2019-03-01T21:38:33.662Z,6.10
2019-03-01T21:41:09.850Z,7.42
2019-03-01T21:43:39.873Z,8.38
2019-03-01T21:46:08.672Z,7.40
2019-03-01T21:48:44.955Z,6.12
2019-03-01T21:51:14.758Z,7.20
2019-03-01T21:53:44.485Z,6.37
2019-03-01T21:56:26.045Z,7.97
2019-03-01T21:58:54.775Z,6.20
2019-03-01T22:01:23.606Z,6.47
2019-03-01T22:03:59.296Z,7.97
2019-03-01T22:06:29.059Z,6.60
2019-03-01T22:08:57.848Z,7.85
2019-03-01T22:11:33.457Z,7.05
2019-03-01T22:14:02.249Z,6.92
2019-03-01T22:16:32.781Z,6.85
2019-03-01T22:19:08.696Z,7.00
2019-03-01T22:21:38.352Z,5.87
2019-03-01T22:24:07.242Z,7.87
2019-03-01T22:26:42.535Z,6.33
2019-03-01T22:29:12.097Z,7.95
2019-03-01T22:31:53.781Z,6.67
2019-03-01T22:34:31.039Z,7.78
2019-03-01T22:37:06.655Z,6.25
2019-03-01T22:39:35.430Z,7.08
2019-03-01T22:42:04.176Z,8.18
2019-03-01T22:44:39.835Z,7.30
2019-03-01T22:47:08.580Z,6.65
2019-03-01T22:49:37.381Z,6.85
2019-03-01T22:52:12.642Z,7.75
2019-03-01T22:54:41.442Z,7.50
2019-03-01T22:57:25.975Z,7.72
2019-03-01T22:59:54.197Z,8.53
2019-03-01T23:02:24.235Z,6.42
2019-03-01T23:05:00.411Z,8.85
2019-03-01T23:07:29.853Z,7.17
2019-03-01T23:09:58.610Z,8.40
2019-03-01T23:12:34.179Z,6.95
2019-03-01T23:15:06.659Z,8.30
2019-03-01T23:17:33.489Z,6.77
2019-03-01T23:20:08.773Z,7.90
2019-03-01T23:22:37.544Z,6.92
2019-03-01T23:25:07.700Z,7.90
2019-03-01T23:27:43.876Z,7.97
2019-03-01T23:30:19.326Z,7.60
2019-03-01T23:33:01.374Z,7.03
2019-03-01T23:35:30.180Z,7.35
2019-03-01T23:37:59.105Z,8.15
2019-03-01T23:40:35.854Z,6.62
2019-03-01T23:43:04.689Z,8.15
2019-03-01T23:45:33.437Z,7.62
2019-03-01T23:48:10.635Z,8.08
2019-03-01T23:50:40.231Z,7.45
2019-03-01T23:53:09.071Z,6.85
2019-03-01T23:55:44.992Z,6.70
2019-03-01T23:58:20.760Z,7.00
